Time;durP1;ratioP1;P1;durP2;ratioP2;P2;SDS_P1;SDS_P2;PMS_P1;PMS_P2;Temp;Humidity;BMP_temperature;BMP_pressure;BME280_temperature;BME280_humidity;BME280_pressure;Samples;Min_cycle;Max_cycle;Signal;HPM_P1;HPM_P2
2021/09/02 00:01:33;;;;;;;;;;;;;;;21.35;66.98;102780.06;7284936;19;152877;-51
2021/09/02 00:04:01;;;;;;;;;;;;;;;21.34;67.38;102775.59;7286078;19;152062;-51
2021/09/02 00:06:28;;;;;;;;;;;;;;;21.35;67.48;102774.44;7286726;19;152820;-51
2021/09/02 00:08:54;;;;;;;;;;;;;;;21.33;67.39;102776.69;7285972;19;154703;-51
2021/09/02 00:11:21;;;;;;;;;;;;;;;21.36;67.39;102775.28;7284157;19;151895;-51
2021/09/02 00:13:48;;;;;;;;;;;;;;;21.37;68.09;102774.19;7284469;19;153359;-50
2021/09/02 00:16:14;;;;;;;;;;;;;;;21.36;67.36;102770.53;7281435;19;152587;-51
2021/09/02 00:18:41;;;;;;;;;;;;;;;21.36;67.81;102769.66;7283965;19;151862;-51
2021/09/02 00:21:08;;;;;;;;;;;;;;;21.37;67.68;102774.19;7292651;19;153308;-51
2021/09/02 00:23:35;;;;;;;;;;;;;;;21.37;67.81;102774.19;7285924;19;152081;-51
2021/09/02 00:26:01;;;;;;;;;;;;;;;21.40;67.59;102780.09;7284910;19;153305;-50
2021/09/02 00:28:28;;;;;;;;;;;;;;;21.41;67.82;102778.16;7285042;19;153804;-50
2021/09/02 00:30:55;;;;;;;;;;;;;;;21.41;68.09;102772.53;7285476;19;152299;-51
2021/09/02 00:33:22;;;;;;;;;;;;;;;21.39;68.00;102778.44;7286641;19;153231;-51
2021/09/02 00:35:48;;;;;;;;;;;;;;;21.40;67.87;102780.09;7282264;19;153931;-50
2021/09/02 00:38:15;;;;;;;;;;;;;;;21.41;67.55;102769.72;7286436;19;152147;-50
2021/09/02 00:40:42;;;;;;;;;;;;;;;21.38;67.83;102770.25;7287099;19;153221;-51
2021/09/02 00:43:08;;;;;;;;;;;;;;;21.40;67.80;102759.56;7282969;19;152225;-50
2021/09/02 00:45:35;;;;;;;;;;;;;;;21.41;67.81;102775.34;7283668;19;155377;-50
2021/09/02 00:48:02;;;;;;;;;;;;;;;21.41;67.70;102758.47;7281670;19;152768;-50
2021/09/02 00:50:29;;;;;;;;;;;;;;;21.40;68.14;102768.00;7285799;19;151893;-51
2021/09/02 00:52:57;;;;;;;;;;;;;;;21.41;68.09;102753.69;7284630;19;152982;-51
2021/09/02 00:55:23;;;;;;;;;;;;;;;21.42;67.98;102755.38;7282499;19;153431;-51
2021/09/02 00:57:50;;;;;;;;;;;;;;;21.41;68.13;102752.84;7286392;19;151936;-50
2021/09/02 01:00:17;;;;;;;;;;;;;;;21.42;67.75;102757.34;7284256;19;153358;-51
2021/09/02 01:02:45;;;;;;;;;;;;;;;21.41;67.71;102759.31;7290891;19;153757;-51
2021/09/02 01:05:13;;;;;;;;;;;;;;;21.41;68.28;102759.31;7281166;19;153355;-51
2021/09/02 01:07:40;;;;;;;;;;;;;;;21.41;68.16;102750.88;7281714;19;154098;-51
2021/09/02 01:10:07;;;;;;;;;;;;;;;21.43;68.31;102757.09;7282719;19;152037;-51
2021/09/02 01:12:35;;;;;;;;;;;;;;;21.42;68.01;102746.09;7285172;19;153115;-51
2021/09/02 01:15:05;;;;;;;;;;;;;;;21.41;68.10;102745.25;7281401;19;153498;-51
2021/09/02 01:17:32;;;;;;;;;;;;;;;21.40;68.36;102745.50;7282183;19;152180;-51
2021/09/02 01:20:00;;;;;;;;;;;;;;;21.40;67.81;102743.56;7280935;19;152990;-51
2021/09/02 01:22:27;;;;;;;;;;;;;;;21.39;68.06;102750.31;7281003;19;154041;-51
2021/09/02 01:24:54;;;;;;;;;;;;;;;21.40;67.88;102746.38;7291921;19;152490;-51
2021/09/02 01:27:24;;;;;;;;;;;;;;;21.42;68.27;102746.94;7281861;19;154367;-51
2021/09/02 01:29:52;;;;;;;;;;;;;;;21.40;67.86;102743.56;7280547;19;151937;-50
2021/09/02 01:32:19;;;;;;;;;;;;;;;21.40;67.96;102740.75;7278088;19;153966;-50
2021/09/02 01:34:46;;;;;;;;;;;;;;;21.39;68.04;102730.63;7279831;19;153369;-50
2021/09/02 01:37:13;;;;;;;;;;;;;;;21.41;67.97;102730.34;7283878;19;151818;-51
2021/09/02 01:39:39;;;;;;;;;;;;;;;21.41;68.21;102728.38;7280580;19;153499;-50
2021/09/02 01:42:11;;;;;;;;;;;;;;;21.42;68.44;102730.09;7278440;19;153924;-51
2021/09/02 01:44:37;;;;;;;;;;;;;;;21.42;68.11;102724.47;7281600;19;152144;-50
2021/09/02 01:47:18;;;;;;;;;;;;;;;21.43;68.50;102717.72;7291636;19;153199;-51
2021/09/02 01:49:45;;;;;;;;;;;;;;;21.42;68.33;102724.47;7282725;19;152118;-51
2021/09/02 01:52:11;;;;;;;;;;;;;;;21.44;68.44;102724.19;7283380;19;152804;-51
2021/09/02 01:54:38;;;;;;;;;;;;;;;21.41;68.46;102725.56;7281344;19;154476;-51
2021/09/02 01:57:05;;;;;;;;;;;;;;;21.42;68.44;102727.28;7284462;19;152185;-51
2021/09/02 01:59:32;;;;;;;;;;;;;;;21.41;68.40;102719.09;7281714;19;153165;-51
2021/09/02 02:01:59;;;;;;;;;;;;;;;21.40;68.11;102720.19;7283543;19;152554;-50
2021/09/02 02:04:26;;;;;;;;;;;;;;;21.40;68.04;102717.41;7282107;19;152215;-51
2021/09/02 02:06:52;;;;;;;;;;;;;;;21.40;68.09;102723.88;7281521;19;154714;-50
2021/09/02 02:09:19;;;;;;;;;;;;;;;21.40;68.02;102715.44;7285449;19;153825;-51
2021/09/02 02:11:47;;;;;;;;;;;;;;;21.39;68.18;102708.13;7280095;19;153484;-50
2021/09/02 02:14:14;;;;;;;;;;;;;;;21.39;68.06;102699.69;7280519;19;153842;-50
2021/09/02 02:16:41;;;;;;;;;;;;;;;21.37;67.89;102707.56;7282550;19;151504;-51
2021/09/02 02:19:09;;;;;;;;;;;;;;;21.37;68.46;102713.16;7283311;19;153141;-51
2021/09/02 02:21:37;;;;;;;;;;;;;;;21.39;68.21;102712.91;7281493;19;152364;-51
2021/09/02 02:24:04;;;;;;;;;;;;;;;21.38;68.51;102714.88;7281474;19;152117;-51
2021/09/02 02:26:31;;;;;;;;;;;;;;;21.40;68.59;102708.97;7282094;19;151758;-50
2021/09/02 02:28:58;;;;;;;;;;;;;;;21.39;68.57;102696.88;7280241;19;154377;-51
2021/09/02 02:31:25;;;;;;;;;;;;;;;21.40;68.40;102694.91;7288578;19;151766;-50
2021/09/02 02:33:52;;;;;;;;;;;;;;;21.41;68.35;102700.25;7282477;19;153292;-51
2021/09/02 02:36:19;;;;;;;;;;;;;;;21.40;68.68;102690.13;7279601;19;151994;-51
2021/09/02 02:38:46;;;;;;;;;;;;;;;21.41;68.66;102696.59;7282786;19;152719;-50
2021/09/02 02:41:12;;;;;;;;;;;;;;;21.40;68.71;102689.28;7280030;19;154555;-51
2021/09/02 02:43:39;;;;;;;;;;;;;;;21.40;68.64;102697.72;7275167;19;152203;-51
2021/09/02 02:46:06;;;;;;;;;;;;;;;21.42;68.31;102701.09;7281422;19;152783;-51
2021/09/02 02:48:33;;;;;;;;;;;;;;;21.41;68.46;102703.06;7287860;19;154034;-51
2021/09/02 02:50:59;;;;;;;;;;;;;;;21.41;68.42;102696.59;7296502;19;151673;-51
2021/09/02 02:53:26;;;;;;;;;;;;;;;21.41;68.20;102690.97;7285978;19;153871;-51
2021/09/02 02:55:53;;;;;;;;;;;;;;;21.40;68.12;102684.50;7285024;19;151955;-51
2021/09/02 02:58:20;;;;;;;;;;;;;;;21.41;68.38;102689.00;7288639;19;154607;-50
2021/09/02 03:00:46;;;;;;;;;;;;;;;21.41;68.36;102686.19;7286634;19;153919;-51
2021/09/02 03:03:13;;;;;;;;;;;;;;;21.40;68.21;102680.84;7288460;19;151742;-51
2021/09/02 03:05:40;;;;;;;;;;;;;;;21.42;68.54;102671.03;7288779;19;152933;-51
2021/09/02 03:08:07;;;;;;;;;;;;;;;21.41;68.47;102668.47;7287693;19;153958;-51
2021/09/02 03:10:34;;;;;;;;;;;;;;;21.40;68.56;102667.63;7286482;19;152453;-51
2021/09/02 03:13:00;;;;;;;;;;;;;;;21.39;68.88;102665.97;7293288;19;153493;-51
2021/09/02 03:15:27;;;;;;;;;;;;;;;21.39;68.54;102657.53;7284269;19;152552;-51
2021/09/02 03:17:54;;;;;;;;;;;;;;;21.40;68.49;102663.97;7286402;19;153755;-51
2021/09/02 03:20:21;;;;;;;;;;;;;;;21.39;68.40;102665.97;7287827;19;153171;-51
2021/09/02 03:22:47;;;;;;;;;;;;;;;21.38;68.82;102654.97;7288618;19;152380;-51
2021/09/02 03:25:14;;;;;;;;;;;;;;;21.38;68.33;102661.44;7286246;19;152809;-50
2021/09/02 03:27:41;;;;;;;;;;;;;;;21.41;68.72;102657.22;7286253;19;152894;-51
2021/09/02 03:30:08;;;;;;;;;;;;;;;21.38;68.80;102655.81;7285410;19;152192;-51
2021/09/02 03:32:35;;;;;;;;;;;;;;;21.39;68.68;102651.91;7287138;19;154100;-51
2021/09/02 03:35:02;;;;;;;;;;;;;;;21.38;68.57;102654.97;7293352;19;153661;-51
2021/09/02 03:37:30;;;;;;;;;;;;;;;21.39;68.71;102662.28;7287673;19;153270;-51
2021/09/02 03:39:57;;;;;;;;;;;;;;;21.41;68.39;102660.03;7282623;19;153972;-51
2021/09/02 03:42:24;;;;;;;;;;;;;;;21.40;68.76;102653.56;7288358;19;151986;-51
2021/09/02 03:44:50;;;;;;;;;;;;;;;21.39;68.83;102651.91;7279347;19;153223;-51
2021/09/02 03:47:17;;;;;;;;;;;;;;;21.39;68.97;102651.03;7287344;19;152930;-51
2021/09/02 03:49:44;;;;;;;;;;;;;;;21.38;68.43;102653.00;7285251;19;152009;-51
2021/09/02 03:52:11;;;;;;;;;;;;;;;21.41;68.62;102646.84;7287564;19;153580;-51
2021/09/02 03:54:37;;;;;;;;;;;;;;;21.39;68.54;102642.63;7286103;19;154041;-51
2021/09/02 03:57:04;;;;;;;;;;;;;;;21.38;68.56;102641.75;7291893;19;152168;-50
2021/09/02 03:59:31;;;;;;;;;;;;;;;21.39;68.36;102646.28;7285663;19;154012;-50
2021/09/02 04:01:58;;;;;;;;;;;;;;;21.40;68.72;102644.28;7284394;19;152109;-51
2021/09/02 04:04:25;;;;;;;;;;;;;;;21.40;68.86;102631.06;7286231;19;152728;-51
2021/09/02 04:06:51;;;;;;;;;;;;;;;21.37;68.91;102631.63;7284369;19;153910;-51
2021/09/02 04:09:18;;;;;;;;;;;;;;;21.39;68.52;102635.03;7285771;19;151635;-51
2021/09/02 04:11:45;;;;;;;;;;;;;;;21.37;68.74;102637.25;7284526;19;152790;-51
2021/09/02 04:14:12;;;;;;;;;;;;;;;21.38;68.92;102638.09;7284817;19;154104;-51
2021/09/02 04:16:39;;;;;;;;;;;;;;;21.36;68.86;102627.13;7283717;19;152295;-51
2021/09/02 04:19:05;;;;;;;;;;;;;;;21.37;68.33;102633.59;7292001;19;151700;-51
2021/09/02 04:21:32;;;;;;;;;;;;;;;21.35;68.80;102633.84;7285048;19;153051;-50
2021/09/02 04:23:59;;;;;;;;;;;;;;;21.35;68.48;102622.59;7287352;19;153871;-50
2021/09/02 04:26:25;;;;;;;;;;;;;;;21.34;68.80;102629.38;7284355;19;156922;-51
2021/09/02 04:28:52;;;;;;;;;;;;;;;21.35;68.78;102624.59;7286492;19;152170;-51
2021/09/02 04:31:19;;;;;;;;;;;;;;;21.35;68.82;102627.41;7285057;19;152218;-51
2021/09/02 04:33:46;;;;;;;;;;;;;;;21.34;68.72;102629.38;7283297;19;153648;-50
2021/09/02 04:36:12;;;;;;;;;;;;;;;21.35;68.62;102630.22;7284833;19;151818;-51
2021/09/02 04:38:39;;;;;;;;;;;;;;;21.35;69.04;102636.66;7287285;19;153084;-51
2021/09/02 04:41:06;;;;;;;;;;;;;;;21.36;69.01;102637.50;7290253;19;152337;-51
2021/09/02 04:43:33;;;;;;;;;;;;;;;21.34;68.79;102643.44;7284903;19;153073;-51
2021/09/02 04:46:00;;;;;;;;;;;;;;;21.36;68.92;102648.75;7280618;19;152692;-51
2021/09/02 04:48:27;;;;;;;;;;;;;;;21.35;68.92;102644.28;7284887;19;151545;-50
2021/09/02 04:50:53;;;;;;;;;;;;;;;21.34;68.95;102640.63;7284744;19;152762;-51
2021/09/02 04:53:20;;;;;;;;;;;;;;;21.35;69.14;102645.09;7282679;19;155755;-51
2021/09/02 04:55:47;;;;;;;;;;;;;;;21.33;68.89;102638.91;7282437;19;151835;-51
2021/09/02 04:58:14;;;;;;;;;;;;;;;21.34;68.85;102640.63;7283273;19;152635;-51
2021/09/02 05:00:41;;;;;;;;;;;;;;;21.34;69.13;102632.19;7290215;19;154096;-51
2021/09/02 05:03:08;;;;;;;;;;;;;;;21.34;69.03;102628.53;7283471;19;153235;-51
2021/09/02 05:05:35;;;;;;;;;;;;;;;21.34;69.06;102625.72;7281179;19;153457;-51
2021/09/02 05:08:02;;;;;;;;;;;;;;;21.33;68.80;102627.69;7284165;19;153413;-50
2021/09/02 05:10:29;;;;;;;;;;;;;;;21.34;68.78;102628.53;7280296;19;152134;-51
2021/09/02 05:12:56;;;;;;;;;;;;;;;21.35;69.13;102624.59;7280860;19;153199;-51
2021/09/02 05:15:23;;;;;;;;;;;;;;;21.33;69.14;102630.47;7283088;19;153316;-51
2021/09/02 05:17:50;;;;;;;;;;;;;;;21.32;68.88;102637.22;7285146;19;153480;-50
2021/09/02 05:20:16;;;;;;;;;;;;;;;21.32;68.64;102628.78;7281650;19;153320;-51
2021/09/02 05:22:43;;;;;;;;;;;;;;;21.33;69.01;102636.09;7293495;19;154333;-50
2021/09/02 05:25:11;;;;;;;;;;;;;;;21.33;69.19;102636.09;7281800;19;152972;-51
2021/09/02 05:27:37;;;;;;;;;;;;;;;21.34;69.17;102637.81;7281424;19;152947;-51
2021/09/02 05:30:05;;;;;;;;;;;;;;;21.33;69.01;102641.72;7284146;19;152563;-51
2021/09/02 05:32:32;;;;;;;;;;;;;;;21.32;69.10;102637.22;7282821;19;154115;-51
2021/09/02 05:34:59;;;;;;;;;;;;;;;21.34;68.92;102640.63;7282505;19;152100;-51
2021/09/02 05:37:26;;;;;;;;;;;;;;;21.36;68.78;102632.75;7281866;19;152893;-51
2021/09/02 05:39:53;;;;;;;;;;;;;;;21.35;69.04;102635.84;7283962;19;153836;-52
2021/09/02 05:42:19;;;;;;;;;;;;;;;21.34;68.81;102640.63;7285116;19;153349;-51
2021/09/02 05:44:46;;;;;;;;;;;;;;;21.35;68.96;102641.47;7286321;19;152065;-51
2021/09/02 05:47:13;;;;;;;;;;;;;;;21.33;68.98;102638.06;7279008;19;152003;-51
2021/09/02 05:49:40;;;;;;;;;;;;;;;21.34;68.87;102632.19;7284051;19;153806;-51
2021/09/02 05:52:06;;;;;;;;;;;;;;;21.36;68.86;102634.69;7281570;19;154159;-51
2021/09/02 05:54:33;;;;;;;;;;;;;;;21.36;69.06;102629.94;7281654;19;152135;-51
2021/09/02 05:57:00;;;;;;;;;;;;;;;21.33;69.00;102636.09;7280186;19;152942;-50
2021/09/02 05:59:27;;;;;;;;;;;;;;;21.36;68.84;102634.69;7282938;19;153749;-51
2021/09/02 06:01:53;;;;;;;;;;;;;;;21.36;69.15;102634.69;7284334;19;151949;-51
2021/09/02 06:04:21;;;;;;;;;;;;;;;21.42;69.55;102648.53;7283553;19;152755;-50
2021/09/02 06:06:47;;;;;;;;;;;;;;;21.45;69.20;102650.78;7290153;19;153078;-51
2021/09/02 06:09:14;;;;;;;;;;;;;;;21.47;69.07;102648.56;7266356;19;154051;-51
2021/09/02 06:11:41;;;;;;;;;;;;;;;21.48;68.78;102655.88;7283406;19;153753;-51
2021/09/02 06:14:08;;;;;;;;;;;;;;;21.51;68.23;102649.69;7282659;19;151776;-51
2021/09/02 06:16:34;;;;;;;;;;;;;;;21.55;68.41;102656.47;7279484;19;153177;-50
2021/09/02 06:19:01;;;;;;;;;;;;;;;21.62;67.75;102653.41;7282390;19;154885;-51
2021/09/02 06:21:28;;;;;;;;;;;;;;;21.64;68.01;102639.91;7278192;19;152400;-51
2021/09/02 06:23:55;;;;;;;;;;;;;;;21.66;68.04;102646.13;7284579;19;153507;-51
2021/09/02 06:26:22;;;;;;;;;;;;;;;21.70;65.76;102653.72;7278641;19;153797;-52
2021/09/02 06:28:48;;;;;;;;;;;;;;;21.72;65.90;102645.84;7292993;19;151912;-51
2021/09/02 06:31:18;;;;;;;;;;;;;;;21.79;65.71;102650.38;7277507;19;154558;-50
2021/09/02 06:33:45;;;;;;;;;;;;;;;21.84;65.02;102642.81;7283851;19;151891;-51
2021/09/02 06:36:12;;;;;;;;;;;;;;;21.88;65.33;102641.13;7281063;19;154801;-51
2021/09/02 06:38:39;;;;;;;;;;;;;;;21.92;64.88;102636.66;7281621;19;154346;-50
2021/09/02 06:41:05;;;;;;;;;;;;;;;21.95;64.89;102638.94;7282288;19;151972;-51
2021/09/02 06:43:32;;;;;;;;;;;;;;;22.00;65.12;102653.00;7283492;19;152651;-50
2021/09/02 06:45:59;;;;;;;;;;;;;;;22.03;64.71;102655.25;7280025;19;153990;-51
2021/09/02 06:48:25;;;;;;;;;;;;;;;22.06;65.10;102674.44;7285653;19;151879;-51
2021/09/02 06:50:52;;;;;;;;;;;;;;;22.10;65.05;102663.47;7280667;19;153616;-51
2021/09/02 06:53:19;;;;;;;;;;;;;;;22.13;65.05;102657.25;7279212;19;153385;-52
2021/09/02 06:55:46;;;;;;;;;;;;;;;22.15;64.94;102655.88;7280607;19;152619;-51
2021/09/02 06:58:12;;;;;;;;;;;;;;;22.18;64.99;102654.47;7279013;19;154218;-51
2021/09/02 07:00:39;;;;;;;;;;;;;;;22.20;64.87;102654.19;7282186;19;152745;-51
2021/09/02 07:03:06;;;;;;;;;;;;;;;22.22;64.55;102657.56;7282447;19;152040;-51
2021/09/02 07:05:33;;;;;;;;;;;;;;;22.24;64.55;102653.38;7281410;19;153966;-51
2021/09/02 07:08:00;;;;;;;;;;;;;;;22.28;64.56;102653.66;7281450;19;152393;-51
2021/09/02 07:10:35;;;;;;;;;;;;;;;22.30;63.97;102657.88;7284949;19;152970;-51
2021/09/02 07:13:03;;;;;;;;;;;;;;;22.32;64.23;102660.41;7279984;19;151756;-51
2021/09/02 07:15:29;;;;;;;;;;;;;;;22.33;64.13;102662.09;7279409;19;151730;-50
2021/09/02 07:17:57;;;;;;;;;;;;;;;22.35;64.27;102660.69;7279232;19;154297;-51
2021/09/02 07:20:24;;;;;;;;;;;;;;;22.36;64.15;102659.56;7281954;19;153469;-50
2021/09/02 07:22:51;;;;;;;;;;;;;;;22.36;63.62;102656.75;7282121;19;154051;-50
2021/09/02 07:25:18;;;;;;;;;;;;;;;22.37;63.90;102661.28;7277845;19;154223;-50
2021/09/02 07:27:45;;;;;;;;;;;;;;;22.38;63.38;102660.16;7281807;19;152466;-51
2021/09/02 07:30:11;;;;;;;;;;;;;;;22.39;63.51;102653.41;7279271;19;152124;-51
2021/09/02 07:32:38;;;;;;;;;;;;;;;22.39;63.49;102653.41;7288189;19;153662;-51
2021/09/02 07:35:06;;;;;;;;;;;;;;;22.40;63.64;102645.75;7287530;19;152570;-50
2021/09/02 07:37:33;;;;;;;;;;;;;;;22.40;63.12;102649.44;7286144;19;152467;-51
2021/09/02 07:40:00;;;;;;;;;;;;;;;22.40;63.01;102651.41;7284272;19;151990;-50
2021/09/02 07:42:27;;;;;;;;;;;;;;;22.39;63.02;102659.03;7287504;19;153903;-51
2021/09/02 07:44:54;;;;;;;;;;;;;;;22.39;63.37;102669.44;7286792;19;153443;-51
2021/09/02 07:47:21;;;;;;;;;;;;;;;22.40;63.15;102668.31;7284187;19;151953;-50
2021/09/02 07:49:57;;;;;;;;;;;;;;;22.39;62.91;102661.84;7279975;19;152169;-50
2021/09/02 07:52:27;;;;;;;;;;;;;;;22.39;63.07;102661.84;7286007;19;152213;-50
2021/09/02 07:54:54;;;;;;;;;;;;;;;22.37;63.07;102666.91;7295996;19;152159;-50
2021/09/02 07:57:22;;;;;;;;;;;;;;;22.36;62.99;102656.75;7286588;19;153354;-50
2021/09/02 07:59:48;;;;;;;;;;;;;;;22.37;63.24;102658.44;7286855;19;152139;-50
2021/09/02 08:02:15;;;;;;;;;;;;;;;22.38;62.95;102657.34;7288055;19;151823;-50
2021/09/02 08:04:42;;;;;;;;;;;;;;;22.38;62.88;102643.25;7282146;19;153365;-50
2021/09/02 08:07:09;;;;;;;;;;;;;;;22.39;62.58;102642.13;7287759;19;151698;-50
2021/09/02 08:09:36;;;;;;;;;;;;;;;22.40;62.78;102643.81;7286924;19;152615;-50
2021/09/02 08:12:03;;;;;;;;;;;;;;;22.39;62.76;102638.47;7285431;19;153563;-50
2021/09/02 08:14:30;;;;;;;;;;;;;;;22.40;62.63;102646.63;7283854;19;151929;-50
2021/09/02 08:16:56;;;;;;;;;;;;;;;22.41;62.87;102641.84;7292415;19;152180;-50
2021/09/02 08:19:23;;;;;;;;;;;;;;;22.40;62.66;102645.75;7286901;19;152355;-50
2021/09/02 08:21:50;;;;;;;;;;;;;;;22.38;62.55;102643.25;7285450;19;154670;-50
2021/09/02 08:24:17;;;;;;;;;;;;;;;22.39;62.53;102649.72;7286498;19;153644;-51
2021/09/02 08:26:44;;;;;;;;;;;;;;;22.38;62.59;102653.66;7284613;19;152404;-50
2021/09/02 08:29:11;;;;;;;;;;;;;;;22.39;62.61;102652.53;7286653;19;153495;-50
2021/09/02 08:31:37;;;;;;;;;;;;;;;22.38;62.53;102659.31;7282912;19;153559;-50
2021/09/02 08:34:04;;;;;;;;;;;;;;;22.36;62.69;102653.94;7286794;19;154310;-50
2021/09/02 08:36:31;;;;;;;;;;;;;;;22.35;62.35;102655.06;7284607;19;152142;-51
2021/09/02 08:38:58;;;;;;;;;;;;;;;22.34;62.29;102666.63;7292310;19;154433;-50
2021/09/02 08:41:24;;;;;;;;;;;;;;;22.36;62.44;102669.97;7287193;19;153307;-50
2021/09/02 08:43:51;;;;;;;;;;;;;;;22.33;62.27;102670.56;7279943;19;154474;-51
2021/09/02 08:46:32;;;;;;;;;;;;;;;22.31;62.74;102661.53;7284477;19;151863;-51
2021/09/02 08:48:59;;;;;;;;;;;;;;;22.30;62.31;102659.84;7281806;19;153500;-50
2021/09/02 08:51:26;;;;;;;;;;;;;;;22.27;62.60;102666.03;7280630;19;152494;-50
2021/09/02 08:53:54;;;;;;;;;;;;;;;22.26;62.82;102672.81;7282191;19;152568;-51
2021/09/02 08:56:20;;;;;;;;;;;;;;;22.25;62.75;102668.28;7286632;19;152832;-50
2021/09/02 08:58:47;;;;;;;;;;;;;;;22.19;62.75;102673.06;7287849;19;153304;-50
2021/09/02 09:01:14;;;;;;;;;;;;;;;22.19;63.12;102675.88;7284063;19;151770;-50
2021/09/02 09:03:47;;;;;;;;;;;;;;;22.17;63.02;102676.13;7282842;19;153496;-50
2021/09/02 09:06:27;;;;;;;;;;;;;;;22.15;62.98;102667.16;7283494;19;151804;-50
2021/09/02 09:08:55;;;;;;;;;;;;;;;22.15;62.96;102671.94;7283690;19;151912;-50
2021/09/02 09:11:25;;;;;;;;;;;;;;;22.14;62.83;102681.47;7280526;19;153551;-50
2021/09/02 09:14:03;;;;;;;;;;;;;;;22.15;63.23;102675.59;7284170;19;152397;-51
2021/09/02 09:16:40;;;;;;;;;;;;;;;22.12;63.38;102676.13;7285282;19;153292;-51
2021/09/02 09:19:06;;;;;;;;;;;;;;;22.13;63.31;102676.97;7279676;19;152179;-51
2021/09/02 09:21:33;;;;;;;;;;;;;;;22.16;64.11;102682.91;7288326;19;152001;-50
2021/09/02 09:24:02;;;;;;;;;;;;;;;22.14;64.08;102678.66;7277006;19;153378;-50
2021/09/02 09:26:30;;;;;;;;;;;;;;;22.11;64.03;102676.41;7275102;19;152063;-51
2021/09/02 09:28:58;;;;;;;;;;;;;;;22.11;64.34;102674.47;7274351;19;152326;-50
2021/09/02 09:31:26;;;;;;;;;;;;;;;22.11;63.86;102682.06;7276593;19;154496;-51
2021/09/02 09:33:54;;;;;;;;;;;;;;;22.08;63.87;102676.94;7282775;19;152121;-51
2021/09/02 09:36:22;;;;;;;;;;;;;;;22.06;64.18;102685.69;7278125;19;152769;-50
2021/09/02 09:38:57;;;;;;;;;;;;;;;22.05;64.40;102689.63;7273067;19;153930;-50
2021/09/02 09:41:31;;;;;;;;;;;;;;;22.06;64.09;102676.41;7274299;19;151917;-50
2021/09/02 09:44:08;;;;;;;;;;;;;;;22.06;64.17;102684.84;7284114;19;153411;-51
2021/09/02 09:46:35;;;;;;;;;;;;;;;22.05;63.93;102675.56;7283171;19;155120;-51
2021/09/02 09:49:01;;;;;;;;;;;;;;;22.04;64.40;102675.81;7280931;19;151974;-50
2021/09/02 09:51:28;;;;;;;;;;;;;;;22.03;64.19;102663.72;7275786;19;153949;-51
2021/09/02 09:53:55;;;;;;;;;;;;;;;22.03;64.01;102677.78;7280589;19;151966;-50
2021/09/02 09:56:23;;;;;;;;;;;;;;;22.03;63.99;102672.16;7284054;19;153464;-50
2021/09/02 09:58:52;;;;;;;;;;;;;;;22.03;64.27;102668.53;7279251;19;152560;-51
2021/09/02 10:01:19;;;;;;;;;;;;;;;22.03;63.80;102672.16;7282488;19;151892;-51
2021/09/02 10:03:54;;;;;;;;;;;;;;;22.03;64.26;102668.53;7283081;19;153128;-51
2021/09/02 10:06:23;;;;;;;;;;;;;;;22.03;63.99;102662.91;7287796;19;153334;-50
2021/09/02 10:08:49;;;;;;;;;;;;;;;22.02;63.92;102662.03;7284455;19;152845;-50
2021/09/02 10:11:16;;;;;;;;;;;;;;;22.01;63.93;102660.34;7282786;19;153770;-51
2021/09/02 10:13:43;;;;;;;;;;;;;;;22.01;64.09;102663.16;7281585;19;151889;-50
2021/09/02 10:16:11;;;;;;;;;;;;;;;21.99;63.64;102656.94;7280484;19;152700;-50
2021/09/02 10:18:42;;;;;;;;;;;;;;;22.01;63.47;102657.53;7279325;19;153655;-50
2021/09/02 10:21:10;;;;;;;;;;;;;;;22.01;63.35;102656.69;7283752;19;151881;-50
2021/09/02 10:23:37;;;;;;;;;;;;;;;22.01;63.85;102653.88;7281163;19;152711;-50
2021/09/02 10:26:04;;;;;;;;;;;;;;;22.00;63.63;102658.66;7281083;19;153828;-50
2021/09/02 10:28:32;;;;;;;;;;;;;;;22.00;63.36;102654.97;7287052;19;152053;-50
2021/09/02 10:31:01;;;;;;;;;;;;;;;22.00;63.54;102646.53;7279428;19;154620;-51
2021/09/02 10:33:28;;;;;;;;;;;;;;;21.98;63.84;102637.53;7282451;19;152313;-50
2021/09/02 10:35:54;;;;;;;;;;;;;;;22.00;63.74;102641.75;7282968;19;153180;-50
2021/09/02 10:38:31;;;;;;;;;;;;;;;22.02;63.20;102633.03;7280492;19;154189;-51
2021/09/02 10:40:58;;;;;;;;;;;;;;;22.01;63.29;102629.38;7280230;19;152580;-50
2021/09/02 10:43:43;;;;;;;;;;;;;;;22.01;63.64;102628.53;7277996;19;152220;-50
2021/09/02 10:46:20;;;;;;;;;;;;;;;22.01;63.21;102628.53;7278485;19;152328;-50
2021/09/02 10:48:47;;;;;;;;;;;;;;;22.01;63.21;102629.38;7280816;19;152086;-50
2021/09/02 10:51:23;;;;;;;;;;;;;;;22.00;63.60;102629.66;7282212;19;153129;-51
2021/09/02 10:53:49;;;;;;;;;;;;;;;21.99;63.44;102630.75;7280735;19;151817;-51
2021/09/02 10:56:16;;;;;;;;;;;;;;;21.98;63.24;102621.50;7282038;19;153941;-50
2021/09/02 10:58:45;;;;;;;;;;;;;;;21.99;63.27;102622.31;7278464;19;152912;-51
2021/09/02 11:01:21;;;;;;;;;;;;;;;21.98;63.68;102624.31;7281972;19;151980;-51
2021/09/02 11:03:50;;;;;;;;;;;;;;;22.01;63.27;102622.91;7279356;19;152787;-50
2021/09/02 11:06:17;;;;;;;;;;;;;;;22.00;63.19;102629.66;7278730;19;153424;-50
2021/09/02 11:08:44;;;;;;;;;;;;;;;22.00;63.65;102629.66;7288739;19;151754;-50
2021/09/02 11:11:12;;;;;;;;;;;;;;;21.99;63.25;102620.34;7295338;19;152753;-51
2021/09/02 11:13:39;;;;;;;;;;;;;;;22.02;63.24;102621.78;7286977;19;152522;-50
2021/09/02 11:16:09;;;;;;;;;;;;;;;22.02;63.36;102610.53;7286923;19;151858;-50
2021/09/02 11:18:42;;;;;;;;;;;;;;;22.02;63.62;102613.34;7285489;19;154418;-50
2021/09/02 11:21:11;;;;;;;;;;;;;;;22.00;63.50;102607.13;7288220;19;151929;-50
2021/09/02 11:23:40;;;;;;;;;;;;;;;21.99;63.53;102611.91;7288956;19;153640;-50
2021/09/02 11:26:07;;;;;;;;;;;;;;;21.99;63.33;102611.06;7286442;19;154127;-51
2021/09/02 11:28:44;;;;;;;;;;;;;;;22.00;63.37;102607.97;7286401;19;152008;-50
2021/09/02 11:31:10;;;;;;;;;;;;;;;22.00;63.40;102610.78;7286202;19;152239;-51
2021/09/02 11:33:47;;;;;;;;;;;;;;;21.99;63.16;102611.06;7292996;19;154284;-51
2021/09/02 11:36:14;;;;;;;;;;;;;;;21.98;63.21;102609.41;7288130;19;153129;-51
2021/09/02 11:38:42;;;;;;;;;;;;;;;21.99;63.23;102602.63;7285096;19;153319;-51
2021/09/02 11:41:09;;;;;;;;;;;;;;;21.97;63.66;102608.53;7287760;19;152289;-50
2021/09/02 11:43:38;;;;;;;;;;;;;;;21.97;63.58;102605.72;7287604;19;157751;-51
2021/09/02 11:46:05;;;;;;;;;;;;;;;21.97;63.24;102604.88;7286401;19;154829;-51
2021/09/02 11:48:52;;;;;;;;;;;;;;;21.97;63.36;102593.63;7287446;19;152740;-50
2021/09/02 11:51:22;;;;;;;;;;;;;;;21.96;63.18;102589.13;7283575;19;152730;-51
2021/09/02 11:54:01;;;;;;;;;;;;;;;21.97;63.54;102594.47;7281202;19;153949;-51
2021/09/02 11:56:28;;;;;;;;;;;;;;;21.96;63.60;102591.94;7292776;19;152265;-50
2021/09/02 11:58:57;;;;;;;;;;;;;;;21.95;63.31;102590.22;7282423;19;153922;-50
2021/09/02 12:01:24;;;;;;;;;;;;;;;21.95;63.34;102595.84;7284866;19;151869;-50
2021/09/02 12:03:52;;;;;;;;;;;;;;;21.96;63.11;102591.94;7286001;19;153523;-50
2021/09/02 12:06:23;;;;;;;;;;;;;;;21.94;63.17;102595.00;7282976;19;153304;-51
2021/09/02 12:08:50;;;;;;;;;;;;;;;21.95;63.19;102587.41;7285987;19;151922;-50
2021/09/02 12:11:18;;;;;;;;;;;;;;;21.93;63.21;102596.16;7283246;19;153544;-50
2021/09/02 12:13:45;;;;;;;;;;;;;;;21.94;63.57;102595.00;7284415;19;153947;-54
2021/09/02 12:16:16;;;;;;;;;;;;;;;21.94;63.47;102592.19;7287065;19;156356;-50
2021/09/02 12:18:44;;;;;;;;;;;;;;;21.96;63.34;102600.38;7287716;19;152792;-51
2021/09/02 12:21:12;;;;;;;;;;;;;;;21.94;63.70;102597.00;7282968;19;152077;-51
2021/09/02 12:23:52;;;;;;;;;;;;;;;21.95;63.39;102590.22;7286825;19;152834;-50
2021/09/02 12:26:20;;;;;;;;;;;;;;;21.94;63.20;102588.56;7284986;19;154057;-51
2021/09/02 12:28:48;;;;;;;;;;;;;;;21.94;63.18;102591.38;7287340;19;152242;-50
2021/09/02 12:31:16;;;;;;;;;;;;;;;21.94;63.46;102588.56;7286680;19;153631;-50